Time;durP1;ratioP1;P1;durP2;ratioP2;P2;SDS_P1;SDS_P2;PMS_P1;PMS_P2;Temp;Humidity;BMP_temperature;BMP_pressure;BME280_temperature;BME280_humidity;BME280_pressure;Samples;Min_cycle;Max_cycle;Signal;HPM_P1;HPM_P2
2023/05/03 00:00:35;;;;;;;0.73;0.60;;;;;;;8.74;71.48;102038.88;4959004;28;20035;-65
2023/05/03 00:03:05;;;;;;;3.65;0.82;;;;;;;8.74;71.47;102042.38;4957854;28;20106;-65
2023/05/03 00:05:31;;;;;;;1.08;0.50;;;;;;;8.78;71.53;102040.66;4954779;28;20039;-65
2023/05/03 00:07:57;;;;;;;0.40;0.40;;;;;;;8.77;70.96;102035.56;4961702;28;20053;-65
2023/05/03 00:10:23;;;;;;;0.73;0.70;;;;;;;8.68;71.72;102037.41;4957412;28;20039;-66
2023/05/03 00:12:49;;;;;;;0.73;0.47;;;;;;;8.72;71.55;102036.50;4961092;28;20030;-66
2023/05/03 00:15:14;;;;;;;3.90;0.80;;;;;;;8.65;71.72;102032.69;4953175;28;20439;-66
2023/05/03 00:17:40;;;;;;;0.50;0.50;;;;;;;8.56;72.11;102029.94;4957724;28;20077;-66
2023/05/03 00:20:07;;;;;;;0.68;0.60;;;;;;;8.53;72.52;102024.38;4960929;28;20035;-66
2023/05/03 00:22:32;;;;;;;1.23;0.52;;;;;;;8.49;72.80;102042.19;4956071;28;20038;-66
2023/05/03 00:24:59;;;;;;;0.47;0.47;;;;;;;8.46;72.67;102040.13;4952509;28;20114;-66
2023/05/03 00:27:24;;;;;;;0.50;0.50;;;;;;;8.50;72.95;102038.41;4953969;28;20606;-65
2023/05/03 00:29:53;;;;;;;0.75;0.50;;;;;;;8.49;72.90;102034.94;4945104;28;20045;-65
2023/05/03 00:32:22;;;;;;;0.88;0.75;;;;;;;8.47;73.07;102026.41;4960084;28;20716;-64
2023/05/03 00:34:55;;;;;;;1.40;0.50;;;;;;;8.25;73.96;102029.06;4937410;28;20118;-65
2023/05/03 00:37:22;;;;;;;6.35;1.10;;;;;;;8.18;74.05;102023.31;4932325;29;20050;-65
2023/05/03 00:39:47;;;;;;;0.40;0.40;;;;;;;8.18;74.49;102028.69;4956284;28;20039;-66
2023/05/03 00:42:13;;;;;;;1.00;0.82;;;;;;;8.15;74.63;102034.66;4939612;29;20499;-66
2023/05/03 00:44:38;;;;;;;0.82;0.75;;;;;;;8.20;75.01;102032.66;4955124;28;20109;-65
2023/05/03 00:47:04;;;;;;;0.90;0.47;;;;;;;8.24;74.81;102027.47;4988719;23;20030;-62
2023/05/03 00:49:32;;;;;;;1.17;0.38;;;;;;;8.25;74.17;102039.81;5006010;28;20041;-63
2023/05/03 00:51:58;;;;;;;0.38;0.35;;;;;;;8.23;74.38;102035.84;5011424;28;20018;-63
2023/05/03 00:54:27;;;;;;;1.10;0.50;;;;;;;8.11;74.52;102029.09;5009528;28;20037;-62
2023/05/03 00:56:54;;;;;;;0.20;0.20;;;;;;;8.16;75.23;102028.19;4993917;28;20022;-61
2023/05/03 00:59:20;;;;;;;9.95;0.55;;;;;;;8.23;75.05;102035.84;4991993;28;20056;-61
2023/05/03 01:01:50;;;;;;;0.65;0.40;;;;;;;8.15;74.84;102032.75;4974546;28;20030;-64
2023/05/03 01:04:16;;;;;;;0.40;0.40;;;;;;;8.05;74.96;102032.22;4957848;28;20035;-61
2023/05/03 01:07:03;;;;;;;1.08;0.60;;;;;;;8.17;74.82;102048.56;4965091;28;20497;-61
2023/05/03 01:10:03;;;;;;;0.40;0.40;;;;;;;8.21;74.54;102034.22;4972564;28;20084;-62
2023/05/03 01:12:57;;;;;;;0.32;0.32;;;;;;;8.09;74.82;102036.66;4981180;28;20971;-63
2023/05/03 01:15:26;;;;;;;0.40;0.40;;;;;;;8.04;75.07;102030.63;4986243;28;20046;-63
2023/05/03 01:18:00;;;;;;;1.65;0.73;;;;;;;8.01;75.25;102042.75;4960703;28;20031;-63
2023/05/03 01:20:29;;;;;;;0.20;0.20;;;;;;;7.92;75.74;102039.19;4989206;28;20038;-63
2023/05/03 01:22:58;;;;;;;0.47;0.40;;;;;;;7.94;76.48;102036.22;4972233;28;20034;-62
2023/05/03 01:25:25;;;;;;;0.30;0.30;;;;;;;7.91;76.27;102045.69;4973356;28;20463;-63
2023/05/03 01:27:51;;;;;;;0.30;0.30;;;;;;;7.87;76.46;102041.22;4964511;28;20030;-63
2023/05/03 01:30:20;;;;;;;0.38;0.38;;;;;;;7.76;76.50;102048.66;4984648;28;20382;-61
2023/05/03 01:32:50;;;;;;;0.85;0.50;;;;;;;7.84;76.57;102049.88;4973708;28;20030;-61
2023/05/03 01:35:40;;;;;;;0.73;0.73;;;;;;;7.83;75.88;102059.78;4979443;28;20045;-63
2023/05/03 01:38:07;;;;;;;0.40;0.40;;;;;;;7.74;76.48;102056.22;4936136;28;20058;-63
2023/05/03 01:40:41;;;;;;;1.15;0.73;;;;;;;7.70;76.92;102060.63;4968281;28;20065;-61
2023/05/03 01:43:09;;;;;;;0.40;0.40;;;;;;;7.79;76.99;102060.69;4968664;28;20491;-62
2023/05/03 01:45:35;;;;;;;0.32;0.32;;;;;;;7.79;76.71;102058.00;4946660;28;20117;-63
2023/05/03 01:48:00;;;;;;;0.47;0.47;;;;;;;7.83;77.03;102059.00;4988385;28;20152;-62
2023/05/03 01:50:26;;;;;;;0.47;0.47;;;;;;;7.72;77.51;102061.13;4979369;28;20039;-63
2023/05/03 01:52:52;;;;;;;0.30;0.30;;;;;;;7.64;77.02;102058.34;4972008;28;20082;-62
2023/05/03 01:55:17;;;;;;;0.50;0.50;;;;;;;7.62;77.43;102058.63;4984753;28;20061;-63
2023/05/03 01:57:44;;;;;;;1.08;0.90;;;;;;;7.63;78.08;102064.78;4971835;28;20038;-62
2023/05/03 02:00:11;;;;;;;0.22;0.22;;;;;;;7.58;77.17;102060.31;4987323;28;20056;-62
2023/05/03 02:02:59;;;;;;;0.35;0.35;;;;;;;7.66;77.57;102059.63;4990742;28;20045;-63
2023/05/03 02:05:25;;;;;;;0.35;0.35;;;;;;;7.64;77.39;102063.69;4911078;29;20431;-63
2023/05/03 02:07:50;;;;;;;0.82;0.50;;;;;;;7.67;77.58;102060.41;4907832;29;20054;-63
2023/05/03 02:10:16;;;;;;;0.38;0.38;;;;;;;7.64;78.36;102069.06;4909733;29;20040;-61
2023/05/03 02:12:44;;;;;;;0.75;0.50;;;;;;;7.71;78.63;102059.50;4911772;29;20518;-63
2023/05/03 02:15:11;;;;;;;0.43;0.40;;;;;;;7.66;78.56;102069.53;4909988;29;20602;-63
2023/05/03 02:17:37;;;;;;;0.63;0.63;;;;;;;7.65;78.12;102068.75;4899442;29;20067;-61
2023/05/03 02:20:04;;;;;;;0.63;0.60;;;;;;;7.68;78.65;102064.69;4891473;29;20036;-62
2023/05/03 02:22:51;;;;;;;0.30;0.20;;;;;;;7.64;78.41;102077.91;4912433;29;20272;-61
2023/05/03 02:25:18;;;;;;;4.65;0.40;;;;;;;7.65;78.47;102073.31;4842510;29;20132;-63
2023/05/03 02:27:43;;;;;;;9.00;0.57;;;;;;;7.53;78.37;102073.03;4835313;29;20046;-62
2023/05/03 02:30:09;;;;;;;0.30;0.30;;;;;;;7.52;78.88;102069.56;4835367;29;20058;-62
2023/05/03 02:32:40;;;;;;;0.47;0.47;;;;;;;7.45;78.73;102077.22;4834614;29;20107;-62
2023/05/03 02:35:07;;;;;;;0.40;0.40;;;;;;;7.21;79.85;102076.59;4835733;29;20140;-63
2023/05/03 02:37:33;;;;;;;1.10;0.60;;;;;;;7.04;80.55;102082.53;4836488;29;20528;-61
2023/05/03 02:40:04;;;;;;;1.65;0.40;;;;;;;7.21;81.00;102077.41;4835890;29;20041;-62
2023/05/03 02:42:30;;;;;;;1.40;0.82;;;;;;;7.40;80.96;102081.84;4877971;29;20087;-62
2023/05/03 02:44:56;;;;;;;0.70;0.68;;;;;;;7.44;79.78;102080.97;4894199;29;20143;-63
2023/05/03 02:47:23;;;;;;;0.60;0.40;;;;;;;7.53;80.09;102070.38;4867927;29;20435;-63
2023/05/03 02:49:48;;;;;;;0.47;0.47;;;;;;;7.52;79.65;102084.84;4902629;29;20217;-63
2023/05/03 02:52:15;;;;;;;0.80;0.80;;;;;;;7.53;79.15;102081.09;4883698;29;20399;-63
2023/05/03 02:55:00;;;;;;;0.50;0.50;;;;;;;7.46;79.89;102081.47;4872798;29;20040;-63
2023/05/03 02:57:26;;;;;;;0.32;0.32;;;;;;;7.48;79.56;102081.16;4815979;29;20054;-61
2023/05/03 02:59:53;;;;;;;0.40;0.40;;;;;;;7.52;79.92;102084.84;4817788;29;20136;-61
2023/05/03 03:02:20;;;;;;;0.75;0.75;;;;;;;7.59;80.43;102090.63;4833963;29;20132;-63
2023/05/03 03:04:46;;;;;;;0.63;0.63;;;;;;;7.66;79.72;102088.31;4871690;29;20032;-62
2023/05/03 03:07:11;;;;;;;0.52;0.38;;;;;;;7.53;80.79;102091.81;4892480;29;20039;-61
2023/05/03 03:09:37;;;;;;;0.50;0.50;;;;;;;7.57;80.92;102096.25;4892989;29;20117;-63
2023/05/03 03:12:03;;;;;;;0.50;0.50;;;;;;;7.52;81.38;102091.00;4891633;29;20081;-61
2023/05/03 03:14:31;;;;;;;0.35;0.35;;;;;;;7.64;81.06;102093.19;4899903;29;20051;-64
2023/05/03 03:16:56;;;;;;;1.75;0.88;;;;;;;7.65;81.11;102089.38;4876989;29;20045;-63
2023/05/03 03:19:22;;;;;;;0.50;0.50;;;;;;;7.81;80.73;102093.34;4875046;29;20138;-61
2023/05/03 03:21:48;;;;;;;1.02;0.75;;;;;;;7.82;80.92;102094.97;4893661;29;20040;-63
2023/05/03 03:24:14;;;;;;;0.43;0.43;;;;;;;7.83;81.30;102097.34;4877178;29;20029;-64
2023/05/03 03:26:40;;;;;;;0.50;0.50;;;;;;;7.84;81.65;102098.91;4888668;29;20044;-64
2023/05/03 03:29:08;;;;;;;0.40;0.40;;;;;;;7.85;81.78;102097.81;4892021;29;20089;-62
2023/05/03 03:31:35;;;;;;;0.75;0.57;;;;;;;7.92;81.62;102092.03;4895660;29;20029;-61
2023/05/03 03:34:01;;;;;;;0.47;0.47;;;;;;;7.81;82.48;102098.72;4923672;28;20531;-63
2023/05/03 03:36:29;;;;;;;0.50;0.50;;;;;;;7.66;83.37;102097.16;4970774;28;20042;-62
2023/05/03 03:38:55;;;;;;;0.60;0.60;;;;;;;7.77;82.98;102103.09;4973450;28;20031;-63
2023/05/03 03:41:21;;;;;;;2.00;0.35;;;;;;;7.77;83.80;102092.38;4965381;28;20035;-62
2023/05/03 03:43:48;;;;;;;0.40;0.40;;;;;;;8.02;82.88;102099.88;4966008;28;20026;-62
2023/05/03 03:46:17;;;;;;;0.60;0.60;;;;;;;7.95;82.17;102096.81;4971835;28;20030;-62
2023/05/03 03:48:43;;;;;;;2.55;0.70;;;;;;;7.93;82.93;102088.28;4970387;28;20033;-63
2023/05/03 03:51:10;;;;;;;0.75;0.50;;;;;;;7.94;82.63;102089.84;4970969;28;20030;-61
2023/05/03 03:53:41;;;;;;;0.40;0.40;;;;;;;7.96;83.04;102095.72;4971823;28;20175;-64
2023/05/03 03:56:07;;;;;;;0.73;0.70;;;;;;;7.99;81.80;102097.81;4973325;28;20026;-63
2023/05/03 03:58:33;;;;;;;0.68;0.68;;;;;;;8.07;82.75;102094.41;4962156;28;20035;-63
2023/05/03 04:01:01;;;;;;;0.40;0.40;;;;;;;8.04;82.17;102097.69;4970456;28;20132;-62
2023/05/03 04:03:28;;;;;;;0.95;0.88;;;;;;;8.03;82.94;102090.75;4966266;28;20053;-62
2023/05/03 04:05:54;;;;;;;0.68;0.40;;;;;;;8.06;83.23;102090.94;4945915;28;20026;-63
2023/05/03 04:08:21;;;;;;;0.90;0.65;;;;;;;8.22;82.30;102086.03;4964132;28;21203;-60
2023/05/03 04:10:47;;;;;;;1.05;0.70;;;;;;;8.23;82.49;102090.28;4964781;28;20157;-63
2023/05/03 04:13:13;;;;;;;0.45;0.43;;;;;;;8.42;82.42;102084.78;4982704;28;20542;-62
2023/05/03 04:15:39;;;;;;;0.30;0.30;;;;;;;8.32;82.24;102090.38;4966288;28;20129;-61
2023/05/03 04:18:07;;;;;;;0.40;0.40;;;;;;;8.55;81.43;102086.63;4967788;28;20034;-64
2023/05/03 04:20:38;;;;;;;0.98;0.98;;;;;;;8.44;81.13;102096.78;4949324;28;20030;-64
2023/05/03 04:23:05;;;;;;;1.02;0.80;;;;;;;8.50;81.86;102097.47;4967406;28;20041;-63
2023/05/03 04:25:31;;;;;;;0.63;0.50;;;;;;;8.54;81.92;102096.56;4968472;28;20101;-61
2023/05/03 04:28:03;;;;;;;0.63;0.60;;;;;;;8.54;82.45;102093.88;4966685;28;20026;-63
2023/05/03 04:30:30;;;;;;;0.73;0.73;;;;;;;8.67;82.11;102100.28;4953291;28;20903;-62
2023/05/03 04:33:00;;;;;;;2.20;0.60;;;;;;;8.66;82.30;102104.84;4967509;28;20041;-65
2023/05/03 04:35:27;;;;;;;1.08;0.55;;;;;;;8.77;80.98;102103.50;4958029;28;20039;-63
2023/05/03 04:37:53;;;;;;;0.30;0.30;;;;;;;8.74;80.94;102106.00;4966455;28;20041;-63
2023/05/03 04:40:22;;;;;;;0.43;0.43;;;;;;;8.93;80.18;102110.09;4987139;28;20044;-60
2023/05/03 04:42:56;;;;;;;0.43;0.43;;;;;;;9.01;79.72;102106.66;4961326;28;20022;-63
2023/05/03 04:45:22;;;;;;;0.88;0.40;;;;;;;8.95;80.07;102112.47;4960483;28;20038;-63
2023/05/03 04:47:51;;;;;;;2.05;0.88;;;;;;;8.92;80.83;102110.41;4970737;28;20026;-61
2023/05/03 04:50:17;;;;;;;0.45;0.45;;;;;;;8.73;81.45;102118.63;4972886;28;20481;-63
2023/05/03 04:52:46;;;;;;;1.08;0.70;;;;;;;8.86;81.48;102117.81;4966048;28;20030;-60
2023/05/03 04:55:12;;;;;;;1.55;0.63;;;;;;;8.93;81.87;102120.03;4977683;28;20060;-62
2023/05/03 04:57:39;;;;;;;1.13;0.68;;;;;;;9.01;81.83;102128.16;4967584;28;20080;-63
2023/05/03 05:00:27;;;;;;;5.50;1.23;;;;;;;9.09;82.18;102134.69;4961846;28;20069;-63
2023/05/03 05:02:59;;;;;;;0.32;0.32;;;;;;;9.32;81.27;102149.66;4922324;29;20118;-63
2023/05/03 05:05:28;;;;;;;0.50;0.50;;;;;;;9.39;81.37;102143.84;4911633;29;20664;-63
2023/05/03 05:07:54;;;;;;;0.40;0.40;;;;;;;9.49;81.10;102136.28;4916365;29;20060;-63
2023/05/03 05:10:20;;;;;;;1.25;0.70;;;;;;;9.48;81.26;102140.09;4910331;29;20054;-64
2023/05/03 05:12:46;;;;;;;2.20;1.35;;;;;;;9.62;80.79;102137.31;4920541;29;20119;-63
2023/05/03 05:15:11;;;;;;;2.25;0.80;;;;;;;9.68;80.76;102144.91;4895256;29;20070;-64
2023/05/03 05:17:38;;;;;;;3.03;0.75;;;;;;;9.68;80.67;102133.34;4917257;29;20201;-63
2023/05/03 05:20:06;;;;;;;0.57;0.45;;;;;;;9.70;80.84;102145.38;4915410;29;20043;-63
2023/05/03 05:22:33;;;;;;;1.08;0.98;;;;;;;9.73;80.56;102147.47;4920910;29;20539;-64
2023/05/03 05:25:00;;;;;;;0.43;0.30;;;;;;;9.82;80.32;102142.09;4900968;28;20035;-60
2023/05/03 05:27:26;;;;;;;3.10;1.17;;;;;;;9.79;80.31;102148.13;4925263;29;20047;-62
2023/05/03 05:29:53;;;;;;;1.00;0.80;;;;;;;9.93;79.94;102159.53;4907716;29;20044;-63
2023/05/03 05:32:18;;;;;;;10.65;0.63;;;;;;;9.86;80.22;102161.91;4925559;29;20823;-64
2023/05/03 05:34:50;;;;;;;1.75;0.70;;;;;;;9.85;80.16;102160.31;4918641;29;20035;-63
2023/05/03 05:37:16;;;;;;;0.50;0.50;;;;;;;9.88;80.47;102155.09;4912111;29;20040;-61
2023/05/03 05:39:42;;;;;;;1.42;0.90;;;;;;;10.01;79.58;102158.75;4931805;28;20565;-61
2023/05/03 05:42:09;;;;;;;8.35;0.75;;;;;;;10.06;79.73;102171.28;4982087;28;20055;-63
2023/05/03 05:44:34;;;;;;;1.38;0.93;;;;;;;10.11;79.37;102166.56;4963489;28;20073;-64
2023/05/03 05:47:03;;;;;;;1.20;0.77;;;;;;;10.14;79.18;102171.34;4983117;28;20067;-63
2023/05/03 05:49:29;;;;;;;0.63;0.60;;;;;;;10.28;78.87;102179.28;4979474;28;20753;-62
2023/05/03 05:51:56;;;;;;;1.63;0.73;;;;;;;10.34;78.42;102186.09;4957867;28;20031;-63
2023/05/03 05:54:22;;;;;;;1.45;0.90;;;;;;;10.35;78.95;102174.22;4964403;28;20401;-64
2023/05/03 05:56:47;;;;;;;1.67;0.75;;;;;;;10.38;79.16;102181.66;4969601;28;20030;-64
2023/05/03 05:59:13;;;;;;;1.90;1.20;;;;;;;10.37;78.76;102180.88;4968558;28;20101;-64
2023/05/03 06:01:43;;;;;;;0.52;0.52;;;;;;;10.52;78.58;102177.72;4953140;28;20041;-64
2023/05/03 06:04:09;;;;;;;0.93;0.70;;;;;;;10.70;78.01;102179.28;4974814;28;20031;-64
2023/05/03 06:06:35;;;;;;;0.30;0.30;;;;;;;10.73;77.61;102184.06;4962078;28;20037;-62
2023/05/03 06:09:01;;;;;;;0.47;0.47;;;;;;;10.77;76.86;102186.91;4968425;28;20026;-64
2023/05/03 06:11:28;;;;;;;0.50;0.50;;;;;;;10.93;76.86;102177.22;4957604;28;20509;-63
2023/05/03 06:13:55;;;;;;;0.73;0.73;;;;;;;11.23;77.07;102178.09;4965678;28;20101;-64
2023/05/03 06:16:21;;;;;;;1.00;0.55;;;;;;;11.57;76.35;102183.41;4989246;28;20041;-64
2023/05/03 06:18:48;;;;;;;0.88;0.30;;;;;;;11.98;75.11;102180.84;4971274;28;20045;-62
2023/05/03 06:21:13;;;;;;;0.52;0.47;;;;;;;12.28;72.65;102187.84;4980155;28;20026;-64
2023/05/03 06:23:39;;;;;;;0.40;0.40;;;;;;;12.46;69.22;102177.69;4967991;28;20038;-64
2023/05/03 06:26:06;;;;;;;1.02;0.95;;;;;;;12.53;68.00;102178.75;4967867;28;20030;-63
2023/05/03 06:28:32;;;;;;;0.60;0.60;;;;;;;12.68;67.63;102183.56;4959561;28;20023;-64
2023/05/03 06:31:00;;;;;;;1.05;0.73;;;;;;;12.64;66.97;102185.34;4961623;28;20053;-63
2023/05/03 06:33:27;;;;;;;0.35;0.35;;;;;;;12.62;67.12;102192.19;4971079;28;20030;-62
2023/05/03 06:35:53;;;;;;;0.30;0.30;;;;;;;12.63;66.72;102181.06;4960235;28;20034;-63
2023/05/03 06:38:19;;;;;;;0.50;0.50;;;;;;;12.72;65.01;102193.72;4968696;28;20033;-61
2023/05/03 06:40:47;;;;;;;2.88;0.50;;;;;;;12.79;63.87;102188.56;4974211;28;20045;-63
2023/05/03 06:43:13;;;;;;;0.13;0.13;;;;;;;12.99;63.03;102196.63;4981911;28;20133;-60
2023/05/03 06:45:50;;;;;;;0.20;0.20;;;;;;;13.21;62.50;102200.91;4975625;28;20022;-63
2023/05/03 06:48:16;;;;;;;0.60;0.50;;;;;;;13.48;61.55;102205.72;4958798;28;20121;-64
2023/05/03 06:50:43;;;;;;;0.47;0.28;;;;;;;13.63;59.90;102207.75;4987242;28;20448;-64
2023/05/03 06:53:08;;;;;;;0.20;0.20;;;;;;;13.49;58.37;102201.91;4990036;28;20061;-61
2023/05/03 06:55:34;;;;;;;0.10;0.10;;;;;;;13.59;57.52;102204.16;4992999;22;20391;-63
2023/05/03 06:58:00;;;;;;;0.10;0.10;;;;;;;13.52;56.96;102206.63;4970158;28;20027;-64
2023/05/03 07:00:25;;;;;;;0.30;0.22;;;;;;;13.60;57.00;102203.03;4968205;28;20045;-64
2023/05/03 07:02:51;;;;;;;0.35;0.20;;;;;;;13.53;55.92;102194.66;4972481;28;20038;-64
2023/05/03 07:05:16;;;;;;;0.88;0.32;;;;;;;13.61;56.40;102199.19;4967244;28;20031;-64
2023/05/03 07:07:42;;;;;;;3.72;0.20;;;;;;;13.95;55.85;102201.47;4952279;28;20058;-64
2023/05/03 07:10:07;;;;;;;0.30;0.20;;;;;;;14.19;54.82;102197.94;4968561;28;20499;-63
2023/05/03 07:12:33;;;;;;;0.20;0.15;;;;;;;14.35;53.81;102202.38;4968129;28;20065;-63
2023/05/03 07:14:58;;;;;;;0.17;0.17;;;;;;;14.60;53.20;102194.97;4961156;28;20034;-63
2023/05/03 07:17:24;;;;;;;0.20;0.13;;;;;;;14.70;52.85;102207.25;4961011;28;20031;-64
2023/05/03 07:19:50;;;;;;;0.20;0.20;;;;;;;14.73;52.15;102206.56;4962055;28;20057;-64
2023/05/03 07:22:16;;;;;;;0.25;0.25;;;;;;;14.72;52.06;102204.97;4965908;28;20679;-64
2023/05/03 07:24:41;;;;;;;0.10;0.10;;;;;;;14.43;51.55;102201.44;4951265;28;20161;-64
2023/05/03 07:27:07;;;;;;;0.20;0.20;;;;;;;14.24;51.55;102205.84;4972779;28;20098;-65
2023/05/03 07:29:33;;;;;;;0.35;0.30;;;;;;;14.24;51.49;102209.34;4967065;28;20038;-65
2023/05/03 07:31:59;;;;;;;0.50;0.20;;;;;;;14.04;51.04;102204.84;4955832;28;20053;-66
2023/05/03 07:34:25;;;;;;;0.10;0.10;;;;;;;13.93;51.96;102211.84;4967526;28;20060;-65
2023/05/03 07:36:51;;;;;;;0.13;0.13;;;;;;;13.86;51.76;102206.19;4951756;28;20119;-65
2023/05/03 07:39:17;;;;;;;0.10;0.10;;;;;;;13.79;52.45;102207.88;4967287;28;20217;-65
2023/05/03 07:41:42;;;;;;;0.10;0.10;;;;;;;13.79;52.07;102205.19;4967264;28;20395;-64
2023/05/03 07:44:08;;;;;;;0.25;0.20;;;;;;;13.83;52.78;102198.75;4966565;28;20043;-65
2023/05/03 07:46:34;;;;;;;0.17;0.10;;;;;;;13.74;52.27;102198.09;4956160;28;20039;-65
2023/05/03 07:49:04;;;;;;;0.22;0.22;;;;;;;13.59;51.89;102198.72;4968393;28;20018;-65
2023/05/03 07:51:34;;;;;;;0.20;0.20;;;;;;;13.62;51.50;102191.84;4970313;28;20106;-65
2023/05/03 07:54:00;;;;;;;0.30;0.13;;;;;;;13.40;51.10;102190.34;4967117;28;20039;-65
2023/05/03 07:56:27;;;;;;;0.30;0.20;;;;;;;13.53;52.40;102186.53;4952167;28;20430;-65
2023/05/03 07:58:52;;;;;;;0.10;0.10;;;;;;;13.63;52.80;102196.16;4975176;28;20038;-65
2023/05/03 08:01:19;;;;;;;0.10;0.10;;;;;;;13.67;53.11;102195.13;4970679;28;20030;-64
2023/05/03 08:03:44;;;;;;;0.20;0.10;;;;;;;13.82;52.29;102199.09;4969847;28;20034;-65
2023/05/03 08:06:10;;;;;;;0.10;0.10;;;;;;;13.78;51.99;102201.69;4970385;28;20035;-65
2023/05/03 08:08:37;;;;;;;0.10;0.10;;;;;;;13.82;51.74;102204.53;4969686;28;20045;-64
2023/05/03 08:11:03;;;;;;;0.10;0.10;;;;;;;13.92;51.69;102204.84;4956409;28;20042;-65
2023/05/03 08:13:28;;;;;;;0.10;0.10;;;;;;;13.95;51.53;102198.78;4966973;28;20037;-65
2023/05/03 08:15:54;;;;;;;0.20;0.20;;;;;;;13.94;51.64;102207.22;4965975;28;21609;-64
2023/05/03 08:18:20;;;;;;;0.20;0.20;;;;;;;13.85;52.59;102201.91;4973475;28;20042;-63
2023/05/03 08:20:45;;;;;;;0.20;0.20;;;;;;;14.01;51.06;102199.31;4961817;28;20407;-65
2023/05/03 08:23:11;;;;;;;0.00;0.00;;;;;;;14.08;50.79;102213.09;4966554;28;20035;-64
2023/05/03 08:25:37;;;;;;;0.00;0.00;;;;;;;14.20;50.47;102215.78;4966541;28;20138;-64
2023/05/03 08:28:03;;;;;;;0.47;0.20;;;;;;;14.14;51.59;102209.03;4950225;28;20137;-64
2023/05/03 08:30:29;;;;;;;0.57;0.22;;;;;;;14.07;51.22;102214.22;4965717;28;20539;-65
2023/05/03 08:32:55;;;;;;;0.10;0.10;;;;;;;14.06;51.02;102210.72;4975749;28;20049;-64
2023/05/03 08:35:20;;;;;;;0.10;0.10;;;;;;;13.87;51.06;102210.50;4970029;28;20130;-65
2023/05/03 08:37:46;;;;;;;0.40;0.40;;;;;;;14.05;50.81;102203.72;4963943;28;20093;-64
2023/05/03 08:40:12;;;;;;;0.50;0.20;;;;;;;14.08;50.61;102215.78;4955457;28;20035;-64
2023/05/03 08:42:40;;;;;;;0.10;0.10;;;;;;;14.08;50.60;102211.19;4955279;28;20097;-64
2023/05/03 08:45:11;;;;;;;0.20;0.17;;;;;;;14.07;50.44;102212.28;4961977;28;20050;-64
2023/05/03 08:47:39;;;;;;;0.00;0.00;;;;;;;14.01;48.97;102210.16;4966651;28;20085;-64
2023/05/03 08:50:05;;;;;;;0.32;0.32;;;;;;;14.03;48.84;102218.75;4970618;28;20088;-65
2023/05/03 08:52:33;;;;;;;0.00;0.00;;;;;;;14.12;50.40;102214.78;4965521;28;20034;-65
2023/05/03 08:54:58;;;;;;;0.20;0.20;;;;;;;14.17;50.25;102211.03;4969060;28;20476;-65
2023/05/03 08:57:25;;;;;;;0.10;0.10;;;;;;;14.21;49.60;102222.78;4964843;28;20054;-65
2023/05/03 08:59:56;;;;;;;0.20;0.20;;;;;;;14.35;49.48;102220.53;4962746;28;20075;-64
2023/05/03 09:02:21;;;;;;;0.15;0.10;;;;;;;14.76;48.04;102236.50;4965599;28;20042;-64
2023/05/03 09:04:47;;;;;;;0.22;0.13;;;;;;;15.00;47.97;102235.63;4966244;28;20035;-64
2023/05/03 09:07:14;;;;;;;0.05;0.05;;;;;;;15.12;46.54;102235.56;4971992;28;20039;-65
2023/05/03 09:09:40;;;;;;;0.10;0.10;;;;;;;15.19;46.84;102236.53;4963493;28;20046;-65
2023/05/03 09:12:08;;;;;;;1.67;0.40;;;;;;;15.34;47.29;102230.38;4949128;28;20042;-65
2023/05/03 09:14:44;;;;;;;0.03;0.03;;;;;;;15.34;47.74;102232.28;4947725;28;20030;-65
2023/05/03 09:17:20;;;;;;;0.20;0.20;;;;;;;15.45;47.73;102227.94;4961694;28;20035;-65
2023/05/03 09:19:51;;;;;;;0.13;0.13;;;;;;;15.57;47.40;102236.03;4959897;28;20085;-65
2023/05/03 09:22:17;;;;;;;0.63;0.22;;;;;;;15.48;47.69;102243.56;4955626;28;20038;-65
2023/05/03 09:24:59;;;;;;;0.00;0.00;;;;;;;15.25;47.76;102246.00;4960114;28;20039;-65
2023/05/03 09:27:26;;;;;;;0.30;0.10;;;;;;;15.00;46.62;102230.19;4957915;28;20664;-64
2023/05/03 09:29:54;;;;;;;0.22;0.20;;;;;;;14.90;48.17;102227.97;4962859;28;20035;-65
2023/05/03 09:32:21;;;;;;;0.00;0.00;;;;;;;15.05;47.81;102236.16;4967062;28;20545;-65
2023/05/03 09:34:47;;;;;;;0.30;0.10;;;;;;;15.17;47.51;102249.69;4970718;28;20105;-65
2023/05/03 09:37:13;;;;;;;0.00;0.00;;;;;;;15.25;47.86;102254.16;4953814;28;20035;-65
2023/05/03 09:39:44;;;;;;;0.43;0.28;;;;;;;15.23;47.48;102247.50;4965069;28;20388;-65
2023/05/03 09:42:14;;;;;;;0.20;0.10;;;;;;;15.34;46.50;102240.44;4952662;28;20555;-64
2023/05/03 09:44:50;;;;;;;0.10;0.10;;;;;;;15.73;47.15;102239.56;4948765;28;20093;-66
2023/05/03 09:47:17;;;;;;;0.10;0.10;;;;;;;16.25;46.25;102231.88;4959777;28;20301;-66
2023/05/03 09:49:43;;;;;;;0.57;0.20;;;;;;;16.76;46.00;102234.56;4951168;28;20576;-65
2023/05/03 09:52:08;;;;;;;0.10;0.10;;;;;;;17.05;45.43;102234.75;4963650;28;20118;-66
2023/05/03 09:54:34;;;;;;;0.10;0.10;;;;;;;16.97;43.95;102233.06;4949520;28;20503;-64
2023/05/03 09:57:03;;;;;;;0.20;0.17;;;;;;;16.61;43.34;102229.94;4942871;28;20400;-65
2023/05/03 09:59:29;;;;;;;0.10;0.10;;;;;;;16.66;44.63;102226.97;4971415;28;20042;-65
2023/05/03 10:02:00;;;;;;;0.10;0.10;;;;;;;16.61;45.03;102214.41;4971285;28;20031;-65
2023/05/03 10:04:27;;;;;;;0.08;0.00;;;;;;;16.65;44.95;102223.44;4947020;28;20439;-65
2023/05/03 10:06:59;;;;;;;0.82;0.20;;;;;;;16.63;44.44;102216.78;4966086;28;20033;-65
2023/05/03 10:09:33;;;;;;;0.20;0.10;;;;;;;16.44;43.47;102219.44;4969921;28;20487;-65
2023/05/03 10:12:01;;;;;;;0.20;0.10;;;;;;;16.35;44.79;102211.50;4962151;28;20038;-65
2023/05/03 10:14:26;;;;;;;0.05;0.05;;;;;;;16.68;45.26;102219.22;4949739;28;20035;-65
2023/05/03 10:16:59;;;;;;;0.55;0.20;;;;;;;16.61;44.85;102217.13;4949995;28;20530;-65
2023/05/03 10:19:49;;;;;;;0.50;0.10;;;;;;;16.62;45.16;102210.56;4959688;28;20090;-65
2023/05/03 10:22:14;;;;;;;0.65;0.13;;;;;;;16.72;45.22;102215.44;4958344;28;20030;-67
2023/05/03 10:25:01;;;;;;;0.88;0.20;;;;;;;16.80;44.90;102217.16;4958810;28;20091;-65
2023/05/03 10:27:41;;;;;;;0.05;0.05;;;;;;;16.69;42.82;102213.44;4961148;28;20046;-65
2023/05/03 10:30:25;;;;;;;0.57;0.30;;;;;;;17.38;44.85;102214.38;4949734;28;20039;-65
2023/05/03 10:32:51;;;;;;;0.00;0.00;;;;;;;18.16;43.20;102213.72;4970747;28;20035;-65
2023/05/03 10:35:18;;;;;;;0.10;0.10;;;;;;;18.65;40.48;102222.63;4966050;28;20385;-66
2023/05/03 10:37:47;;;;;;;0.17;0.10;;;;;;;18.35;39.93;102210.88;4965791;28;20504;-66
2023/05/03 10:40:14;;;;;;;0.10;0.10;;;;;;;18.06;40.54;102211.63;4935914;28;20521;-67
2023/05/03 10:42:55;;;;;;;0.10;0.10;;;;;;;18.16;41.70;102211.78;4957554;28;20089;-66
2023/05/03 10:45:27;;;;;;;0.13;0.13;;;;;;;17.97;39.69;102209.16;4964903;28;20061;-67
2023/05/03 10:48:10;;;;;;;0.08;0.08;;;;;;;17.47;41.91;102204.81;4936823;28;20038;-67
2023/05/03 10:50:37;;;;;;;0.10;0.10;;;;;;;17.41;41.53;102200.00;4968530;28;20070;-67
2023/05/03 10:53:02;;;;;;;0.10;0.10;;;;;;;17.06;41.26;102197.44;4963389;28;20019;-66
2023/05/03 10:55:28;;;;;;;0.95;0.20;;;;;;;17.24;41.80;102193.13;4966373;28;20109;-67
2023/05/03 10:57:57;;;;;;;0.45;0.20;;;;;;;17.46;41.46;102188.84;4968072;28;20483;-66
2023/05/03 11:00:31;;;;;;;0.20;0.10;;;;;;;17.69;41.02;102184.97;4958472;28;20035;-66
2023/05/03 11:03:06;;;;;;;0.00;0.00;;;;;;;17.68;41.46;102186.13;4958812;28;20039;-66
2023/05/03 11:05:32;;;;;;;0.10;0.10;;;;;;;17.85;41.88;102188.34;4959250;28;20161;-66
2023/05/03 11:08:08;;;;;;;0.10;0.10;;;;;;;18.06;42.45;102189.81;4948474;28;20030;-66
2023/05/03 11:10:33;;;;;;;0.40;0.22;;;;;;;18.20;41.76;102187.28;4957798;28;20031;-66
2023/05/03 11:12:59;;;;;;;0.08;0.00;;;;;;;18.25;42.96;102187.75;4955408;28;20069;-67
2023/05/03 11:15:24;;;;;;;0.52;0.10;;;;;;;18.16;42.93;102184.50;4948958;28;20380;-66
2023/05/03 11:17:53;;;;;;;0.10;0.10;;;;;;;18.15;43.67;102187.59;4963553;28;20035;-66
2023/05/03 11:20:20;;;;;;;0.13;0.13;;;;;;;18.17;43.02;102177.91;4969086;28;20030;-66
2023/05/03 11:22:45;;;;;;;0.20;0.17;;;;;;;18.21;42.89;102186.13;4969794;28;20038;-66
2023/05/03 11:25:11;;;;;;;0.10;0.10;;;;;;;18.55;42.49;102185.06;4971746;28;20456;-66
2023/05/03 11:27:36;;;;;;;0.10;0.10;;;;;;;18.67;41.69;102182.09;4973000;28;20035;-66
2023/05/03 11:30:02;;;;;;;0.63;0.30;;;;;;;18.71;41.54;102189.19;4950115;28;20038;-66
2023/05/03 11:32:29;;;;;;;0.10;0.10;;;;;;;18.67;40.78;102185.59;4969392;28;20556;-66